createdAt,value
2018-07-26T00:01:03.910Z,0
2018-07-26T00:02:13.735Z,0
2018-07-26T00:03:23.547Z,0
2018-07-26T00:04:33.628Z,0
2018-07-26T00:05:43.725Z,0
2018-07-26T00:06:53.546Z,0
2018-07-26T00:08:03.697Z,0
2018-07-26T00:09:13.779Z,0
2018-07-26T00:10:23.853Z,0
2018-07-26T00:11:33.935Z,0
2018-07-26T00:12:43.763Z,0
2018-07-26T00:13:53.326Z,0
2018-07-26T00:15:03.192Z,0
2018-07-26T00:16:13.274Z,0
2018-07-26T00:17:23.347Z,0
2018-07-26T00:18:33.167Z,0
2018-07-26T00:19:42.724Z,0
2018-07-26T00:20:52.810Z,0
2018-07-26T00:22:02.876Z,0
2018-07-26T00:23:12.953Z,0
2018-07-26T00:24:23.019Z,0
2018-07-26T00:25:33.109Z,0
2018-07-26T00:26:43.187Z,0
2018-07-26T00:27:53.245Z,0
2018-07-26T00:29:03.321Z,0
2018-07-26T00:30:13.401Z,0
2018-07-26T00:31:23.472Z,0
2018-07-26T00:32:33.555Z,0
2018-07-26T00:33:43.377Z,0
2018-07-26T00:34:53.445Z,0
2018-07-26T00:36:03.287Z,0
2018-07-26T00:37:13.373Z,0
2018-07-26T00:38:23.473Z,0
2018-07-26T00:39:33.544Z,0
2018-07-26T00:40:43.607Z,0
2018-07-26T00:41:53.170Z,0
2018-07-26T00:43:03.497Z,0
2018-07-26T00:44:13.582Z,0
2018-07-26T00:45:23.672Z,0
2018-07-26T00:46:33.761Z,0
2018-07-26T00:47:43.857Z,0
2018-07-26T00:48:54.203Z,0
2018-07-26T00:50:04.276Z,0
2018-07-26T00:51:14.365Z,0
2018-07-26T00:52:24.437Z,0
2018-07-26T00:53:34.560Z,0
2018-07-26T00:54:44.636Z,0
2018-07-26T00:55:54.721Z,0
2018-07-26T00:57:04.794Z,0
2018-07-26T00:58:14.857Z,0
2018-07-26T00:59:24.977Z,0
2018-07-26T01:00:35.050Z,0
2018-07-26T01:01:45.122Z,0
2018-07-26T01:02:55.213Z,0
2018-07-26T01:04:05.288Z,0
2018-07-26T01:05:15.459Z,0
2018-07-26T01:06:25.292Z,0
2018-07-26T01:07:35.381Z,0
2018-07-26T01:08:45.435Z,0
2018-07-26T01:09:55.499Z,0
2018-07-26T01:11:05.327Z,0
2018-07-26T01:12:15.393Z,0
2018-07-26T01:13:25.465Z,0
2018-07-26T01:14:35.526Z,0
2018-07-26T01:15:45.609Z,0
2018-07-26T01:16:55.689Z,0
2018-07-26T01:18:05.774Z,0
2018-07-26T01:19:15.589Z,0
2018-07-26T01:20:25.408Z,0
2018-07-26T01:21:35.473Z,0
2018-07-26T01:22:45.295Z,0
2018-07-26T01:23:55.375Z,0
2018-07-26T01:25:05.192Z,0
2018-07-26T01:26:15.268Z,0
2018-07-26T01:27:24.810Z,0
2018-07-26T01:28:34.636Z,0
2018-07-26T01:29:44.688Z,0
2018-07-26T01:30:54.777Z,0
2018-07-26T01:32:04.904Z,0
2018-07-26T01:33:14.970Z,0
2018-07-26T01:34:24.795Z,0
2018-07-26T01:35:34.615Z,0
2018-07-26T01:36:44.692Z,0
2018-07-26T01:37:54.774Z,0
2018-07-26T01:39:04.864Z,0
2018-07-26T01:40:14.929Z,0
2018-07-26T01:41:24.998Z,0
2018-07-26T01:42:34.803Z,0
2018-07-26T01:43:44.599Z,0
2018-07-26T01:44:54.684Z,0
2018-07-26T01:46:04.768Z,0
2018-07-26T01:47:14.851Z,0
2018-07-26T01:48:24.919Z,0
2018-07-26T01:49:35.005Z,0
2018-07-26T01:50:44.830Z,0
2018-07-26T01:51:54.954Z,0
2018-07-26T01:53:04.767Z,0
2018-07-26T01:54:14.585Z,0
2018-07-26T01:55:24.399Z,0
2018-07-26T01:56:34.221Z,0
2018-07-26T01:57:44.317Z,0
2018-07-26T01:58:54.384Z,0
2018-07-26T02:00:04.462Z,0
2018-07-26T02:01:14.541Z,0
2018-07-26T02:02:24.353Z,0
2018-07-26T02:03:34.479Z,0
2018-07-26T02:04:44.554Z,0
2018-07-26T02:05:54.680Z,0
2018-07-26T02:07:04.765Z,0
2018-07-26T02:08:14.827Z,0
2018-07-26T02:09:24.684Z,0
2018-07-26T02:10:34.528Z,0
2018-07-26T02:11:44.348Z,0
2018-07-26T02:12:54.173Z,0
2018-07-26T02:14:04.244Z,0
2018-07-26T02:15:14.067Z,0
2018-07-26T02:16:23.931Z,0
2018-07-26T02:17:33.999Z,0
2018-07-26T02:18:44.083Z,0
2018-07-26T02:19:53.898Z,0
2018-07-26T02:21:03.991Z,0
2018-07-26T02:22:14.067Z,0
2018-07-26T02:23:23.637Z,0
2018-07-26T02:24:33.703Z,0
2018-07-26T02:25:43.773Z,0
2018-07-26T02:26:53.851Z,0
2018-07-26T02:28:03.940Z,0
2018-07-26T02:29:14.012Z,0
2018-07-26T02:30:24.085Z,0
2018-07-26T02:31:34.177Z,0
2018-07-26T02:32:44.259Z,0
2018-07-26T02:33:54.339Z,0
2018-07-26T02:35:04.154Z,0
2018-07-26T02:36:14.239Z,0
2018-07-26T02:37:24.057Z,0
2018-07-26T02:38:33.971Z,0
2018-07-26T02:39:44.040Z,0
2018-07-26T02:40:54.091Z,0
2018-07-26T02:42:04.182Z,0
2018-07-26T02:43:14.260Z,0
2018-07-26T02:44:24.391Z,0
2018-07-26T02:45:34.494Z,0
2018-07-26T02:46:44.331Z,0
2018-07-26T02:47:54.412Z,0
2018-07-26T02:49:04.500Z,0
2018-07-26T02:50:14.575Z,4
2018-07-26T02:51:24.705Z,0
2018-07-26T02:52:34.801Z,0
2018-07-26T02:53:44.860Z,4
2018-07-26T02:54:54.678Z,0
2018-07-26T02:56:04.836Z,4
2018-07-26T02:57:14.394Z,4
2018-07-26T02:58:24.509Z,8
2018-07-26T02:59:34.585Z,8
2018-07-26T03:00:44.677Z,8
2018-07-26T03:01:54.770Z,8
2018-07-26T03:03:04.861Z,8
2018-07-26T03:35:20.133Z,276
2018-07-26T03:36:30.192Z,300
2018-07-26T03:37:40.273Z,320
2018-07-26T03:38:50.082Z,352
2018-07-26T03:40:00.151Z,380
2018-07-26T03:41:10.518Z,416
2018-07-26T03:42:22.677Z,456
2018-07-26T03:43:34.104Z,496
2018-07-26T03:44:44.279Z,540
2018-07-26T03:45:54.075Z,572
2018-07-26T03:47:04.151Z,604
2018-07-26T03:48:14.224Z,652
2018-07-26T03:49:24.051Z,716
2018-07-26T03:50:34.129Z,772
2018-07-26T03:51:44.200Z,816
2018-07-26T03:52:54.657Z,856
2018-07-26T03:54:03.952Z,884
2018-07-26T03:55:14.034Z,908
2018-07-26T03:56:24.139Z,936
2018-07-26T03:57:33.970Z,964
2018-07-26T03:58:43.785Z,980
2018-07-26T03:59:53.866Z,996
2018-07-26T04:01:03.928Z,1016
2018-07-26T04:02:13.997Z,1044
2018-07-26T04:03:24.255Z,1064
2018-07-26T04:04:34.079Z,1084
2018-07-26T04:05:43.891Z,1120
2018-07-26T04:06:53.689Z,1156
2018-07-26T04:08:03.766Z,1184
2018-07-26T04:09:13.855Z,1216
2018-07-26T04:10:23.987Z,1248
2018-07-26T04:11:34.080Z,1292
2018-07-26T04:12:43.962Z,1344
2018-07-26T04:13:54.036Z,1408
2018-07-26T04:15:03.892Z,1488
2018-07-26T04:16:13.979Z,1580
2018-07-26T04:17:24.045Z,1668
2018-07-26T04:18:34.118Z,1756
2018-07-26T04:19:44.235Z,1848
2018-07-26T04:20:54.039Z,1908
2018-07-26T04:22:03.598Z,1952
2018-07-26T04:23:13.660Z,2052
2018-07-26T04:24:23.731Z,2192
2018-07-26T04:25:33.815Z,3068
2018-07-26T04:26:43.918Z,5152
2018-07-26T04:27:53.999Z,5492
2018-07-26T04:29:04.087Z,4332
2018-07-26T04:30:13.902Z,3724
2018-07-26T04:31:23.717Z,3512
2018-07-26T04:32:33.536Z,2612
2018-07-26T04:33:43.629Z,2716
2018-07-26T04:34:53.705Z,2840
2018-07-26T04:36:03.779Z,2232
2018-07-26T04:37:13.870Z,2056
2018-07-26T04:38:23.688Z,2524
2018-07-26T04:39:33.770Z,2216
2018-07-26T04:40:43.845Z,2068
2018-07-26T04:41:53.704Z,1844
2018-07-26T04:43:04.060Z,1776
2018-07-26T04:44:13.900Z,1852
2018-07-26T04:45:24.031Z,1908
2018-07-26T04:46:33.899Z,1944
2018-07-26T04:47:43.984Z,2096
2018-07-26T04:48:54.237Z,2068
2018-07-26T04:50:04.395Z,2300
2018-07-26T04:51:14.216Z,2740
2018-07-26T04:52:24.296Z,3328
2018-07-26T04:53:34.191Z,3844
2018-07-26T04:54:44.697Z,4136
2018-07-26T04:55:55.038Z,4160
2018-07-26T04:57:04.857Z,6452
2018-07-26T04:58:14.673Z,9452
2018-07-26T04:59:24.485Z,9480
2018-07-26T05:00:34.565Z,9868
2018-07-26T05:01:44.643Z,10020
2018-07-26T05:02:54.791Z,10132
2018-07-26T05:04:04.618Z,9968
2018-07-26T05:05:14.712Z,9744
2018-07-26T05:06:24.781Z,9856
2018-07-26T05:07:34.861Z,9836
2018-07-26T05:08:44.950Z,9700
2018-07-26T05:09:54.781Z,9692
2018-07-26T05:11:04.852Z,9780
2018-07-26T05:12:14.940Z,9936
2018-07-26T05:13:25.035Z,9968
2018-07-26T05:14:34.652Z,9996
2018-07-26T05:15:44.748Z,10076
2018-07-26T05:16:54.820Z,10140
2018-07-26T05:18:04.643Z,10080
2018-07-26T05:19:15.145Z,10160
2018-07-26T05:20:25.262Z,10128
2018-07-26T05:21:35.327Z,10072
2018-07-26T05:22:45.421Z,9920
2018-07-26T05:23:55.245Z,9856
2018-07-26T05:25:05.318Z,10080
2018-07-26T05:26:15.129Z,10128
2018-07-26T05:27:25.204Z,10152
2018-07-26T05:28:35.298Z,10072
2018-07-26T05:29:45.375Z,10012
2018-07-26T05:30:55.179Z,10132
2018-07-26T05:32:05.293Z,10004
2018-07-26T05:33:15.387Z,9920
2018-07-26T05:34:25.463Z,9936
2018-07-26T05:35:35.276Z,9912
2018-07-26T05:36:45.360Z,9688
2018-07-26T05:37:55.625Z,9592
2018-07-26T05:39:05.511Z,9484
2018-07-26T05:40:15.612Z,9412
2018-07-26T05:41:25.695Z,9300
2018-07-26T05:42:35.832Z,9248
2018-07-26T05:43:45.925Z,9268
2018-07-26T05:44:56.008Z,9348
2018-07-26T05:46:06.107Z,9368
2018-07-26T05:47:16.214Z,9420
2018-07-26T05:48:26.285Z,9428
2018-07-26T05:49:35.851Z,9280
2018-07-26T05:50:45.981Z,9196
2018-07-26T05:51:56.143Z,9148
2018-07-26T05:53:06.289Z,9156
2018-07-26T05:54:16.121Z,9100
2018-07-26T05:55:25.937Z,8948
2018-07-26T05:56:36.006Z,8808
2018-07-26T05:57:46.097Z,8812
2018-07-26T05:58:55.935Z,8696
2018-07-26T06:00:06.221Z,8240
2018-07-26T06:01:16.129Z,8516
2018-07-26T06:02:26.204Z,8668
2018-07-26T06:03:36.035Z,8720
2018-07-26T06:04:46.168Z,7984
2018-07-26T06:05:56.256Z,7352
2018-07-26T06:07:06.329Z,6432
2018-07-26T06:08:16.410Z,4848
2018-07-26T06:09:26.489Z,4944
2018-07-26T06:10:36.571Z,5536
2018-07-26T06:11:46.653Z,4736
2018-07-26T06:12:56.481Z,8048
2018-07-26T06:14:06.295Z,7308
2018-07-26T06:15:16.383Z,5996
2018-07-26T06:16:26.517Z,4844
2018-07-26T06:17:36.637Z,4336
2018-07-26T06:18:46.730Z,4240
2018-07-26T06:19:56.836Z,4312
2018-07-26T06:21:06.662Z,4288
2018-07-26T06:22:16.469Z,4252
2018-07-26T06:23:26.312Z,3484
2018-07-26T06:24:36.387Z,3364
2018-07-26T06:25:46.448Z,3308
2018-07-26T06:26:56.530Z,3328
2018-07-26T06:28:06.918Z,3424
2018-07-26T06:29:17.081Z,3556
2018-07-26T06:30:26.639Z,3684
2018-07-26T06:31:36.741Z,3816
2018-07-26T06:32:46.542Z,3968
2018-07-26T06:33:56.732Z,4136
2018-07-26T06:35:06.810Z,4308
2018-07-26T06:36:16.634Z,4480
2018-07-26T06:37:26.715Z,4612
2018-07-26T06:38:36.541Z,4712
2018-07-26T06:39:46.659Z,4792
2018-07-26T06:40:56.747Z,4864
2018-07-26T06:42:06.816Z,4924
2018-07-26T06:43:16.906Z,5008
2018-07-26T06:44:26.720Z,5088
2018-07-26T06:45:36.818Z,5860
2018-07-26T06:46:46.923Z,5840
2018-07-26T06:47:56.996Z,5476
2018-07-26T06:49:07.097Z,5468
2018-07-26T06:50:16.915Z,5520
2018-07-26T06:51:26.993Z,5308
2018-07-26T06:52:37.080Z,5220
2018-07-26T06:53:47.355Z,5284
2018-07-26T06:54:57.432Z,6740
2018-07-26T06:56:07.495Z,5700
2018-07-26T06:57:17.598Z,5652
2018-07-26T06:58:27.666Z,5984
2018-07-26T06:59:37.754Z,5788
2018-07-26T07:00:47.942Z,5380
2018-07-26T07:01:57.571Z,4908
2018-07-26T07:03:07.669Z,4832
2018-07-26T07:04:17.468Z,4804
2018-07-26T07:05:27.551Z,4936
2018-07-26T07:06:37.649Z,4796
2018-07-26T07:07:47.767Z,4816
2018-07-26T07:08:57.837Z,4860
2018-07-26T07:10:07.801Z,4840
2018-07-26T07:11:18.067Z,4824
2018-07-26T07:12:27.902Z,4840
2018-07-26T07:13:37.766Z,5028
2018-07-26T07:14:47.837Z,4968
2018-07-26T07:15:57.908Z,4960
2018-07-26T07:17:08.000Z,4544
2018-07-26T07:18:18.086Z,4284
2018-07-26T07:19:28.159Z,4248
2018-07-26T07:20:37.893Z,4116
2018-07-26T07:21:47.965Z,4240
2018-07-26T07:22:57.792Z,4116
2018-07-26T07:24:07.616Z,4184
2018-07-26T07:25:17.496Z,4440
2018-07-26T07:26:27.318Z,4200
2018-07-26T07:27:37.131Z,4184
2018-07-26T07:28:46.426Z,4084
2018-07-26T07:29:56.614Z,3876
2018-07-26T07:31:06.834Z,4084
2018-07-26T07:32:16.912Z,4008
2018-07-26T07:33:26.881Z,3672
2018-07-26T07:34:36.740Z,3680
2018-07-26T07:35:46.938Z,4644
2018-07-26T07:36:57.120Z,4180
2018-07-26T07:38:07.219Z,4512
2018-07-26T07:39:16.767Z,4484
2018-07-26T07:40:26.588Z,4448
2018-07-26T07:41:36.456Z,4436
2018-07-26T07:42:46.611Z,4420
2018-07-26T07:43:56.703Z,4412
2018-07-26T07:45:06.572Z,4420
2018-07-26T07:46:16.700Z,4440
2018-07-26T07:47:26.601Z,4444
2018-07-26T07:48:36.762Z,4432
2018-07-26T07:49:46.593Z,4456
2018-07-26T07:50:56.698Z,4456
2018-07-26T07:52:06.797Z,4452
2018-07-26T07:53:16.881Z,4452
2018-07-26T07:54:26.972Z,4484
2018-07-26T07:55:37.063Z,4492
2018-07-26T07:56:47.163Z,4524
2018-07-26T07:57:57.269Z,4544
2018-07-26T07:59:07.407Z,4580
2018-07-26T08:00:17.494Z,4628
2018-07-26T08:01:27.574Z,4624
2018-07-26T08:02:37.393Z,4652
2018-07-26T08:03:47.219Z,4616
2018-07-26T08:04:57.344Z,4528
2018-07-26T08:06:07.431Z,4588
2018-07-26T08:07:17.279Z,4596
2018-07-26T08:08:27.122Z,4632
2018-07-26T08:09:36.962Z,4672
2018-07-26T08:10:47.030Z,4688
2018-07-26T08:11:56.841Z,4728
2018-07-26T08:13:06.916Z,4732
2018-07-26T08:14:16.476Z,4764
2018-07-26T08:15:26.569Z,4788
2018-07-26T08:16:36.436Z,4804
2018-07-26T08:17:46.506Z,4884
2018-07-26T08:18:56.590Z,4932
2018-07-26T08:20:06.681Z,4920
2018-07-26T08:21:17.042Z,4932
2018-07-26T08:22:27.190Z,4996
2018-07-26T08:23:37.281Z,5024
2018-07-26T08:24:47.118Z,5040
2018-07-26T08:25:57.184Z,5060
2018-07-26T08:27:07.267Z,5100
2018-07-26T08:28:16.824Z,5128
2018-07-26T08:29:27.162Z,5136
2018-07-26T08:30:37.082Z,5168
2018-07-26T08:31:46.921Z,5192
2018-07-26T08:32:56.996Z,5232
2018-07-26T08:34:07.137Z,5284
2018-07-26T08:35:17.628Z,5348
2018-07-26T08:36:27.704Z,5364
2018-07-26T08:37:37.785Z,5404
2018-07-26T08:38:47.881Z,5472
2018-07-26T08:39:57.765Z,5512
2018-07-26T08:41:07.414Z,5504
2018-07-26T08:42:17.041Z,5584
2018-07-26T08:43:27.125Z,5664
2018-07-26T08:44:37.205Z,5720
2018-07-26T08:45:47.025Z,5820
2018-07-26T08:46:56.861Z,5880
2018-07-26T08:48:07.023Z,5932
2018-07-26T08:49:17.154Z,6040
2018-07-26T08:50:27.236Z,6032
2018-07-26T08:51:37.318Z,6088
2018-07-26T08:52:47.402Z,6196
2018-07-26T08:53:56.960Z,6304
2018-07-26T08:55:07.094Z,6328
2018-07-26T08:56:17.176Z,6456
2018-07-26T08:57:27.281Z,6560
2018-07-26T08:58:37.119Z,6608
2018-07-26T08:59:47.263Z,6728
2018-07-26T09:00:57.363Z,6864
2018-07-26T09:02:07.693Z,7012
2018-07-26T09:03:18.647Z,5532
2018-07-26T09:04:30.662Z,6732
2018-07-26T09:05:45.515Z,5268
2018-07-26T09:06:59.308Z,7452
2018-07-26T09:08:09.854Z,5476
2018-07-26T09:09:20.094Z,6848
2018-07-26T09:10:30.197Z,7620
2018-07-26T09:11:40.559Z,7584
2018-07-26T09:12:50.698Z,7860
2018-07-26T09:14:00.881Z,8220
2018-07-26T09:15:10.976Z,8352
2018-07-26T09:16:21.060Z,8292
2018-07-26T09:17:30.887Z,8172
2018-07-26T09:18:40.977Z,8300
2018-07-26T09:19:51.414Z,8436
2018-07-26T09:21:01.324Z,8692
2018-07-26T09:22:11.415Z,8628
2018-07-26T09:23:21.512Z,8640
2018-07-26T09:24:31.862Z,8544
2018-07-26T09:25:42.064Z,8652
2018-07-26T09:26:52.150Z,8448
2018-07-26T09:28:02.239Z,8532
2018-07-26T09:29:12.311Z,8452
2018-07-26T09:30:22.406Z,6984
2018-07-26T09:31:32.285Z,8252
2018-07-26T09:32:42.370Z,6404
2018-07-26T09:33:52.194Z,6004
2018-07-26T09:35:02.287Z,5988
2018-07-26T09:36:12.365Z,5856
2018-07-26T09:37:22.203Z,6928
2018-07-26T09:38:32.285Z,8364
2018-07-26T09:39:41.576Z,8412
2018-07-26T09:40:51.677Z,8668
2018-07-26T09:42:01.754Z,8604
2018-07-26T09:43:11.864Z,6212
2018-07-26T09:44:21.664Z,8424
2018-07-26T09:45:31.476Z,8408
2018-07-26T09:46:41.575Z,8204
2018-07-26T09:47:51.406Z,8112
2018-07-26T09:49:01.478Z,8028
2018-07-26T09:50:11.563Z,8192
2018-07-26T09:51:21.644Z,6912
2018-07-26T09:52:31.759Z,8320
2018-07-26T09:53:41.607Z,8444
2018-07-26T09:54:51.714Z,8240
2018-07-26T09:56:01.855Z,7192
2018-07-26T09:57:11.931Z,6396
2018-07-26T09:58:21.848Z,6628
2018-07-26T09:59:31.669Z,6748
2018-07-26T10:00:41.752Z,6748
2018-07-26T10:01:51.589Z,6824
2018-07-26T10:03:01.896Z,6932
2018-07-26T10:04:11.992Z,7316
2018-07-26T10:05:22.090Z,7868
2018-07-26T10:06:32.309Z,7892
2018-07-26T10:07:42.399Z,7652
2018-07-26T10:08:52.491Z,7784
2018-07-26T10:10:02.597Z,7816
2018-07-26T10:11:12.409Z,7924
2018-07-26T10:12:22.262Z,8044
2018-07-26T10:13:32.365Z,8304
2018-07-26T10:14:42.504Z,8208
2018-07-26T10:15:52.535Z,7400
2018-07-26T10:17:02.780Z,7716
2018-07-26T10:18:12.654Z,7540
2018-07-26T10:19:22.213Z,7340
2018-07-26T10:20:32.297Z,6860
2018-07-26T10:21:42.394Z,6644
2018-07-26T10:22:52.473Z,6776
2018-07-26T10:24:02.551Z,7192
2018-07-26T10:25:12.619Z,7260
2018-07-26T10:26:22.714Z,7816
2018-07-26T10:27:32.812Z,8032
2018-07-26T10:28:42.684Z,8232
2018-07-26T10:29:52.255Z,7976
2018-07-26T10:31:02.082Z,7684
2018-07-26T10:32:11.908Z,6780
2018-07-26T10:33:22.004Z,6080
2018-07-26T10:34:32.088Z,6384
2018-07-26T10:35:42.179Z,6548
2018-07-26T10:36:52.313Z,6104
2018-07-26T10:38:02.147Z,6404
2018-07-26T10:39:12.263Z,6152
2018-07-26T10:40:22.391Z,5348
2018-07-26T10:41:32.456Z,5408
2018-07-26T10:42:42.591Z,5216
2018-07-26T10:43:52.417Z,6092
2018-07-26T10:45:02.510Z,5440
2018-07-26T10:46:12.328Z,5940
2018-07-26T10:47:22.163Z,5556
2018-07-26T10:48:32.511Z,5292
2018-07-26T10:49:42.624Z,5600
2018-07-26T10:50:52.726Z,7812
2018-07-26T10:52:02.578Z,8024
2018-07-26T10:53:12.420Z,8328
2018-07-26T10:54:22.289Z,8216
2018-07-26T10:55:32.377Z,7240
2018-07-26T10:56:42.207Z,7364
2018-07-26T10:57:51.502Z,7516
2018-07-26T10:59:01.327Z,7696
2018-07-26T11:00:10.981Z,7884
2018-07-26T11:01:20.549Z,8124
2018-07-26T11:02:30.429Z,8108
2018-07-26T11:03:40.667Z,7888
2018-07-26T11:04:50.310Z,4368
2018-07-26T11:06:00.427Z,4484
2018-07-26T11:07:10.513Z,7780
2018-07-26T11:08:20.607Z,4696
2018-07-26T11:09:30.767Z,7804
2018-07-26T11:10:40.926Z,7916
2018-07-26T11:11:51.015Z,7864
2018-07-26T11:13:01.109Z,8240
2018-07-26T11:14:11.198Z,8308
2018-07-26T11:15:21.184Z,8036
2018-07-26T11:16:31.478Z,7912
2018-07-26T11:17:41.067Z,7540
2018-07-26T11:18:50.899Z,7796
2018-07-26T11:20:01.037Z,7640
2018-07-26T11:21:11.139Z,5124
2018-07-26T11:22:21.236Z,4980
2018-07-26T11:23:31.092Z,8260
2018-07-26T11:24:41.170Z,8564
2018-07-26T11:25:51.455Z,8516
2018-07-26T11:27:01.535Z,8432
2018-07-26T11:28:11.682Z,8328
2018-07-26T11:29:21.817Z,8084
2018-07-26T11:30:31.904Z,7876
2018-07-26T11:31:41.964Z,7848
2018-07-26T11:32:52.078Z,7856
2018-07-26T11:34:01.909Z,6556
2018-07-26T11:35:12.054Z,4400
2018-07-26T11:36:22.159Z,4508
2018-07-26T11:37:31.988Z,8368
2018-07-26T11:38:42.073Z,8452
2018-07-26T11:39:52.144Z,8180
2018-07-26T11:41:02.302Z,8068
2018-07-26T11:42:12.144Z,7964
2018-07-26T11:43:22.258Z,4236
2018-07-26T11:44:32.358Z,5120
2018-07-26T11:45:42.184Z,6588
2018-07-26T11:46:52.334Z,5808
2018-07-26T11:48:02.405Z,7536
2018-07-26T11:49:12.492Z,7668
2018-07-26T11:50:22.556Z,7816
2018-07-26T11:51:32.656Z,7908
2018-07-26T11:52:42.878Z,8024
2018-07-26T11:53:52.545Z,8304
2018-07-26T11:55:02.629Z,8252
2018-07-26T11:56:12.182Z,8328
2018-07-26T11:57:22.265Z,8304
2018-07-26T11:58:32.389Z,8420
2018-07-26T11:59:42.209Z,8088
2018-07-26T12:00:52.044Z,8460
2018-07-26T12:02:02.203Z,8352
2018-07-26T12:03:12.396Z,8180
2018-07-26T12:04:22.490Z,7924
2018-07-26T12:05:32.316Z,7896
2018-07-26T12:06:42.148Z,7844
2018-07-26T12:07:52.261Z,7896
2018-07-26T12:09:02.354Z,7776
2018-07-26T12:10:12.446Z,7816
2018-07-26T12:11:22.027Z,7800
2018-07-26T12:12:32.139Z,7784
2018-07-26T12:13:42.230Z,7812
2018-07-26T12:14:52.070Z,7812
2018-07-26T12:16:01.890Z,8020
2018-07-26T12:17:11.710Z,8080
2018-07-26T12:18:21.800Z,4812
2018-07-26T12:19:31.904Z,5212
2018-07-26T12:20:42.060Z,5348
2018-07-26T12:21:51.888Z,7152
2018-07-26T12:23:02.065Z,8368
2018-07-26T12:24:12.017Z,7864
2018-07-26T12:25:21.855Z,7756
2018-07-26T12:26:31.692Z,7636
2018-07-26T12:27:41.530Z,7244
2018-07-26T12:28:51.621Z,7124
2018-07-26T12:30:01.442Z,7060
2018-07-26T12:31:11.537Z,7108
2018-07-26T12:32:21.676Z,7092
2018-07-26T12:33:31.512Z,7156
2018-07-26T12:34:41.653Z,7156
2018-07-26T12:35:52.021Z,7196
2018-07-26T12:37:02.243Z,7236
2018-07-26T12:38:11.590Z,7324
2018-07-26T12:39:21.678Z,7344
2018-07-26T12:40:31.774Z,7308
2018-07-26T12:41:41.882Z,5080
2018-07-26T12:42:51.688Z,7372
2018-07-26T12:44:01.522Z,7536
2018-07-26T12:45:11.366Z,6800
2018-07-26T12:46:21.677Z,4416
2018-07-26T12:47:32.076Z,8180
2018-07-26T12:48:42.302Z,8420
2018-07-26T12:49:52.389Z,8556
2018-07-26T12:51:02.233Z,8788
2018-07-26T12:52:12.325Z,9084
2018-07-26T12:53:22.479Z,9104
2018-07-26T12:54:32.595Z,9304
2018-07-26T12:55:42.978Z,6316
2018-07-26T12:56:52.878Z,7192
2018-07-26T12:58:02.957Z,6700
2018-07-26T12:59:13.057Z,8508
2018-07-26T13:00:22.893Z,9428
2018-07-26T13:01:33.256Z,9324
2018-07-26T13:02:43.494Z,6084
2018-07-26T13:03:53.593Z,6972
2018-07-26T13:05:03.715Z,6200
2018-07-26T13:06:13.816Z,5796
2018-07-26T13:07:24.106Z,5688
2018-07-26T13:08:34.201Z,8620
2018-07-26T13:09:43.779Z,8172
2018-07-26T13:10:53.598Z,7520
2018-07-26T13:12:02.892Z,4336
2018-07-26T13:13:12.777Z,5700
2018-07-26T13:14:22.875Z,3532
2018-07-26T13:15:32.970Z,3184
2018-07-26T13:16:43.113Z,3064
2018-07-26T13:17:53.215Z,3012
2018-07-26T13:19:03.305Z,2932
2018-07-26T13:20:13.402Z,2900
2018-07-26T13:21:23.240Z,2932
2018-07-26T13:22:33.345Z,2984
2018-07-26T13:23:43.440Z,2996
2018-07-26T13:24:53.551Z,3080
2018-07-26T13:26:03.688Z,3260
2018-07-26T13:27:13.361Z,5116
2018-07-26T13:28:23.597Z,4592
2018-07-26T13:29:33.723Z,3180
2018-07-26T13:30:43.603Z,3172
2018-07-26T13:31:53.437Z,3220
2018-07-26T13:33:03.527Z,3332
2018-07-26T13:34:13.651Z,4352
2018-07-26T13:35:23.869Z,5768
2018-07-26T13:36:33.744Z,5616
2018-07-26T13:37:43.849Z,4136
2018-07-26T13:38:53.677Z,6312
2018-07-26T13:40:04.120Z,6612
2018-07-26T13:41:14.426Z,6600
2018-07-26T13:42:24.594Z,6616
2018-07-26T13:43:34.703Z,6628
2018-07-26T13:44:44.782Z,6692
2018-07-26T13:45:54.868Z,6796
2018-07-26T13:47:04.709Z,6832
2018-07-26T13:48:14.529Z,6192
2018-07-26T13:49:24.629Z,6908
2018-07-26T13:50:34.731Z,7240
2018-07-26T13:51:44.824Z,7384
2018-07-26T13:52:54.926Z,7456
2018-07-26T13:54:05.082Z,7476
2018-07-26T13:55:15.195Z,7440
2018-07-26T13:56:25.290Z,7356
2018-07-26T13:57:35.115Z,7268
2018-07-26T13:58:45.220Z,7080
2018-07-26T13:59:55.110Z,4200
2018-07-26T14:01:05.202Z,4036
2018-07-26T14:02:15.050Z,3992
2018-07-26T14:03:25.140Z,4016
2018-07-26T14:04:35.257Z,4204
2018-07-26T14:05:45.336Z,4412
2018-07-26T14:06:55.456Z,4768
2018-07-26T14:08:05.551Z,5260
2018-07-26T14:09:15.642Z,6724
2018-07-26T14:10:25.758Z,6380
2018-07-26T14:11:35.908Z,7644
2018-07-26T14:12:45.866Z,6612
2018-07-26T14:13:55.688Z,7316
2018-07-26T14:15:05.516Z,7916
2018-07-26T14:16:15.823Z,5464
2018-07-26T14:17:25.937Z,4692
2018-07-26T14:18:36.048Z,4316
2018-07-26T14:19:45.640Z,4828
2018-07-26T14:20:55.996Z,3756
2018-07-26T14:22:06.128Z,3548
2018-07-26T14:23:15.960Z,5532
2018-07-26T14:24:26.337Z,5156
2018-07-26T14:25:36.433Z,3732
2018-07-26T14:26:46.530Z,2792
2018-07-26T14:27:56.823Z,2188
2018-07-26T14:29:06.424Z,2088
2018-07-26T14:30:16.532Z,2068
2018-07-26T14:31:26.634Z,2036
2018-07-26T14:32:36.769Z,2156
2018-07-26T14:33:46.907Z,2384
2018-07-26T14:34:57.042Z,2556
2018-07-26T14:36:07.144Z,2660
2018-07-26T14:37:16.983Z,2792
2018-07-26T14:38:27.364Z,2860
2018-07-26T14:39:37.481Z,2936
2018-07-26T14:40:47.585Z,2992
2018-07-26T14:41:57.692Z,3004
2018-07-26T14:43:07.513Z,2956
2018-07-26T14:44:17.364Z,2824
2018-07-26T14:45:27.474Z,2644
2018-07-26T14:46:37.306Z,2604
2018-07-26T14:47:47.426Z,2564
2018-07-26T14:48:57.520Z,2432
2018-07-26T14:50:07.661Z,2328
2018-07-26T14:51:17.487Z,2300
2018-07-26T14:52:27.674Z,2288
2018-07-26T14:53:37.775Z,2324
2018-07-26T14:54:47.871Z,2328
2018-07-26T14:55:57.449Z,2336
2018-07-26T14:57:07.292Z,2384
2018-07-26T14:58:17.386Z,2440
2018-07-26T14:59:27.200Z,2504
2018-07-26T15:00:37.549Z,2532
2018-07-26T15:01:47.733Z,2536
2018-07-26T15:02:57.810Z,2568
2018-07-26T15:04:07.995Z,2628
2018-07-26T15:05:18.248Z,2740
2018-07-26T15:06:28.549Z,2856
2018-07-26T15:07:38.658Z,2960
2018-07-26T15:08:48.772Z,3084
2018-07-26T15:09:58.901Z,3176
2018-07-26T15:11:08.730Z,3220
2018-07-26T15:12:18.853Z,3292
2018-07-26T15:13:28.943Z,3456
2018-07-26T15:14:39.046Z,3688
2018-07-26T15:15:49.131Z,3904
2018-07-26T15:16:58.952Z,4072
2018-07-26T15:18:09.044Z,4324
2018-07-26T15:19:18.617Z,4308
2018-07-26T15:20:28.898Z,5044
2018-07-26T15:21:38.752Z,5636
2018-07-26T15:22:48.831Z,5924
2018-07-26T15:23:58.919Z,6096
2018-07-26T15:25:09.014Z,6004
2018-07-26T15:26:19.155Z,5176
2018-07-26T15:27:29.509Z,5308
2018-07-26T15:28:39.323Z,5488
2018-07-26T15:29:49.435Z,5612
2018-07-26T15:30:59.547Z,6624
2018-07-26T15:32:09.646Z,6560
2018-07-26T15:33:19.798Z,6584
2018-07-26T15:34:29.879Z,6492
2018-07-26T15:35:39.446Z,6296
2018-07-26T15:36:49.271Z,6128
2018-07-26T15:37:59.978Z,5876
2018-07-26T15:39:10.096Z,5480
2018-07-26T15:40:20.212Z,5184
2018-07-26T15:41:30.456Z,4972
2018-07-26T15:42:40.297Z,4708
2018-07-26T15:43:50.392Z,4204
2018-07-26T15:45:00.573Z,3004
2018-07-26T15:46:10.667Z,3088
2018-07-26T15:47:20.779Z,2648
2018-07-26T15:48:30.892Z,2624
2018-07-26T15:49:40.975Z,2684
2018-07-26T15:50:51.152Z,2756
2018-07-26T15:52:00.993Z,2800
2018-07-26T15:53:10.851Z,2696
2018-07-26T15:54:20.947Z,2584
2018-07-26T15:55:31.133Z,2468
2018-07-26T15:56:41.334Z,2244
2018-07-26T15:57:51.458Z,1976
2018-07-26T15:59:01.544Z,1976
2018-07-26T16:00:11.372Z,1756
2018-07-26T16:01:21.212Z,1580
2018-07-26T16:02:31.115Z,1356
2018-07-26T16:03:41.148Z,1232
2018-07-26T16:04:51.272Z,1044
2018-07-26T16:06:01.386Z,868
2018-07-26T16:07:11.215Z,696
2018-07-26T16:08:21.326Z,576
2018-07-26T16:09:31.456Z,456
2018-07-26T16:10:41.568Z,400
2018-07-26T16:11:51.684Z,416
2018-07-26T16:13:01.787Z,460
2018-07-26T16:14:11.922Z,468
2018-07-26T16:15:22.004Z,460
2018-07-26T16:16:32.103Z,420
2018-07-26T16:17:42.047Z,376
2018-07-26T16:18:52.085Z,348
2018-07-26T16:20:02.294Z,348
2018-07-26T16:21:12.419Z,348
2018-07-26T16:22:23.002Z,356